Time;durP1;ratioP1;P1;durP2;ratioP2;P2;SDS_P1;SDS_P2;PMS_P1;PMS_P2;Temp;Humidity;BMP_temperature;BMP_pressure;BME280_temperature;BME280_humidity;BME280_pressure;Samples;Min_cycle;Max_cycle;Signal;HPM_P1;HPM_P2
2023/09/16 00:00:59;;;;;;;26.70;12.40;;;;;;;;;;5015887;28;20084;-72
2023/09/16 00:03:25;;;;;;;22.23;12.17;;;;;;;;;;5016664;28;20045;-71
2023/09/16 00:05:51;;;;;;;22.58;10.98;;;;;;;;;;5016487;28;20052;-72
2023/09/16 00:08:17;;;;;;;18.27;11.30;;;;;;;;;;5016799;28;20053;-71
2023/09/16 00:10:43;;;;;;;27.17;12.50;;;;;;;;;;5016270;28;20478;-71
2023/09/16 00:13:09;;;;;;;22.55;12.20;;;;;;;;;;5015427;28;20200;-71
2023/09/16 00:15:35;;;;;;;22.52;12.35;;;;;;;;;;5016606;28;20045;-72
2023/09/16 00:18:01;;;;;;;26.75;12.32;;;;;;;;;;5015394;28;20041;-72
2023/09/16 00:20:28;;;;;;;21.67;11.95;;;;;;;;;;5016694;28;20506;-71
2023/09/16 00:22:54;;;;;;;24.20;12.57;;;;;;;;;;5000283;28;20049;-71
2023/09/16 00:25:21;;;;;;;24.02;13.23;;;;;;;;;;5016990;28;20446;-71
2023/09/16 00:27:47;;;;;;;26.08;12.63;;;;;;;;;;5015147;28;20078;-72
2023/09/16 00:30:14;;;;;;;23.27;12.73;;;;;;;;;;5015363;28;20049;-71
2023/09/16 00:32:40;;;;;;;28.05;13.40;;;;;;;;;;5015288;28;20054;-72
2023/09/16 00:35:08;;;;;;;24.33;13.30;;;;;;;;;;5015839;28;20046;-71
2023/09/16 00:37:34;;;;;;;24.25;13.25;;;;;;;;;;5016201;28;20042;-71
2023/09/16 00:40:00;;;;;;;24.02;13.50;;;;;;;;;;5016390;28;20462;-72
2023/09/16 00:42:26;;;;;;;25.85;13.82;;;;;;;;;;5016121;28;20045;-71
2023/09/16 00:44:52;;;;;;;25.20;13.30;;;;;;;;;;5014690;28;20465;-72
2023/09/16 00:47:18;;;;;;;23.70;13.57;;;;;;;;;;5014916;28;20442;-72
2023/09/16 00:49:45;;;;;;;26.67;14.57;;;;;;;;;;5015862;28;20038;-74
2023/09/16 00:52:11;;;;;;;26.00;13.77;;;;;;;;;;5015508;28;20038;-71
2023/09/16 00:54:38;;;;;;;29.77;13.85;;;;;;;;;;5015898;28;20041;-71
2023/09/16 00:57:04;;;;;;;23.45;13.38;;;;;;;;;;5014529;28;20088;-71
2023/09/16 00:59:32;;;;;;;24.77;13.20;;;;;;;;;;5015757;28;20081;-72
2023/09/16 01:01:59;;;;;;;25.35;14.40;;;;;;;;;;5015386;28;20050;-72
2023/09/16 01:04:25;;;;;;;26.70;14.65;;;;;;;;;;4998375;28;20373;-72
2023/09/16 01:06:51;;;;;;;21.85;13.63;;;;;;;;;;5014024;28;20082;-71
2023/09/16 01:09:20;;;;;;;27.35;14.82;;;;;;;;;;5016308;28;20369;-71
2023/09/16 01:11:47;;;;;;;25.58;14.85;;;;;;;;;;5014352;28;20056;-71
2023/09/16 01:14:13;;;;;;;25.27;14.55;;;;;;;;;;5015648;28;20049;-72
2023/09/16 01:16:43;;;;;;;27.20;15.52;;;;;;;;;;5014411;28;20200;-70
2023/09/16 01:19:22;;;;;;;31.50;15.90;;;;;;;;;;5014798;28;20054;-72
2023/09/16 01:21:48;;;;;;;27.80;16.10;;;;;;;;;;5015375;28;20041;-71
2023/09/16 01:24:23;;;;;;;27.55;15.50;;;;;;;;;;5014864;28;20042;-70
2023/09/16 01:26:49;;;;;;;29.88;16.05;;;;;;;;;;5014988;28;20056;-77
2023/09/16 01:29:16;;;;;;;26.87;15.90;;;;;;;;;;5013807;28;20370;-71
2023/09/16 01:31:43;;;;;;;29.40;15.82;;;;;;;;;;4998040;28;20096;-71
2023/09/16 01:34:13;;;;;;;33.58;16.63;;;;;;;;;;5013847;28;20102;-72
2023/09/16 01:36:40;;;;;;;28.60;16.27;;;;;;;;;;5016148;28;20081;-71
2023/09/16 01:39:08;;;;;;;34.42;17.58;;;;;;;;;;5014877;28;20042;-72
2023/09/16 01:41:35;;;;;;;32.40;16.60;;;;;;;;;;5014648;28;20042;-71
2023/09/16 01:44:05;;;;;;;32.53;17.35;;;;;;;;;;4998112;28;20092;-72
2023/09/16 01:46:31;;;;;;;37.22;18.08;;;;;;;;;;4997354;28;20381;-71
2023/09/16 01:48:57;;;;;;;36.07;17.77;;;;;;;;;;5014850;28;20041;-71
2023/09/16 01:51:24;;;;;;;34.90;18.35;;;;;;;;;;5014742;28;20045;-72
2023/09/16 01:53:50;;;;;;;39.28;18.63;;;;;;;;;;5014580;28;20038;-71
2023/09/16 01:56:16;;;;;;;33.67;18.83;;;;;;;;;;5013276;28;20052;-70
2023/09/16 01:58:43;;;;;;;41.08;19.48;;;;;;;;;;5014642;28;20068;-71
2023/09/16 02:01:09;;;;;;;38.80;19.80;;;12.70;99.90;;;;;;5014503;28;20037;-72
2023/09/16 02:03:35;;;;;;;38.63;19.17;;;12.80;99.90;;;;;;5013256;28;20449;-70
2023/09/16 02:06:01;;;;;;;38.03;20.20;;;12.80;99.90;;;;;;5013242;28;20037;-71
2023/09/16 02:08:26;;;;;;;39.70;20.58;;;12.70;99.90;;;;;;5013039;28;20478;-71
2023/09/16 02:10:52;;;;;;;41.92;20.77;;;12.70;99.90;;;;;;4997883;28;20037;-70
2023/09/16 02:13:18;;;;;;;40.13;21.17;;;12.70;99.90;;;;;;5013086;28;20045;-72
2023/09/16 02:15:43;;;;;;;44.13;21.55;;;12.80;99.90;;;;;;5014833;28;20056;-71
2023/09/16 02:18:09;;;;;;;40.75;20.92;;;12.80;99.90;;;;;;4981045;28;20046;-72
2023/09/16 02:20:35;;;;;;;42.97;21.02;;;12.90;99.90;;;;;;5014292;28;20065;-70
2023/09/16 02:23:02;;;;;;;44.38;22.13;;;12.90;99.90;;;;;;4980570;28;20049;-71
2023/09/16 02:25:28;;;;;;;44.42;22.05;;;12.90;99.90;;;;;;5014177;28;20048;-72
2023/09/16 02:27:53;;;;;;;44.90;21.90;;;12.90;99.90;;;;;;5014061;28;20033;-71
2023/09/16 02:30:19;;;;;;;45.33;23.10;;;12.80;99.90;;;;;;5014488;28;20092;-72
2023/09/16 02:32:45;;;;;;;45.20;22.27;;;12.80;99.90;;;;;;5014116;28;20049;-71
2023/09/16 02:35:10;;;;;;;47.22;23.55;;;12.80;99.90;;;;;;5013075;28;20053;-71
2023/09/16 02:37:36;;;;;;;48.13;24.08;;;12.80;99.90;;;;;;5012844;28;20037;-71
2023/09/16 02:40:02;;;;;;;50.63;24.33;;;12.90;99.90;;;;;;4996026;28;20073;-72
2023/09/16 02:42:28;;;;;;;51.85;25.23;;;12.90;99.90;;;;;;5014550;28;20450;-72
2023/09/16 02:44:54;;;;;;;52.38;25.73;;;12.90;99.90;;;;;;5013578;28;20171;-71
2023/09/16 02:47:22;;;;;;;50.65;24.80;;;12.80;99.90;;;;;;5013868;28;20125;-71
2023/09/16 02:49:48;;;;;;;50.78;25.30;;;12.80;99.90;;;;;;5013472;28;20041;-71
2023/09/16 02:52:15;;;;;;;54.05;25.23;;;12.80;99.90;;;;;;5014111;28;20385;-70
2023/09/16 02:54:42;;;;;;;52.20;25.23;;;12.90;99.90;;;;;;5013866;28;20049;-71
2023/09/16 02:57:08;;;;;;;50.33;24.13;;;12.90;99.90;;;;;;5014011;28;20370;-71
2023/09/16 02:59:34;;;;;;;48.80;24.80;;;;;;;;;;4996821;28;20136;-71
2023/09/16 03:02:00;;;;;;;49.70;25.58;;;;;;;;;;5012506;28;20053;-70
2023/09/16 03:04:26;;;;;;;54.88;25.13;;;12.80;99.90;;;;;;5013638;28;20431;-71
2023/09/16 03:06:51;;;;;;;53.70;25.65;;;12.70;99.90;;;;;;5012495;28;20054;-70
2023/09/16 03:09:19;;;;;;;57.60;26.33;;;;;;;;;;5012610;28;20057;-71
2023/09/16 03:11:45;;;;;;;56.97;27.00;;;;;;;;;;4997152;28;20045;-71
2023/09/16 03:14:11;;;;;;;53.58;26.00;;;12.70;99.90;;;;;;5012448;28;20083;-72
2023/09/16 03:16:37;;;;;;;55.30;26.83;;;12.60;99.90;;;;;;4996322;28;20042;-71
2023/09/16 03:19:05;;;;;;;55.22;26.25;;;12.70;99.90;;;;;;4996266;28;20474;-71
2023/09/16 03:21:31;;;;;;;55.90;26.63;;;;;;;;;;5013558;28;20073;-71
2023/09/16 03:23:59;;;;;;;56.00;24.90;;;;;;;;;;5012348;28;20046;-70
2023/09/16 03:26:25;;;;;;;46.88;23.98;;;;;;;;;;5013136;28;20050;-71
2023/09/16 03:28:53;;;;;;;51.85;24.75;;;;;;;;;;5012307;28;20046;-71
2023/09/16 03:31:19;;;;;;;50.05;24.10;;;;;;;;;;5012388;28;20132;-72
2023/09/16 03:33:45;;;;;;;55.45;24.80;;;;;;;;;;5013322;28;20358;-71
2023/09/16 03:36:11;;;;;;;48.65;24.33;;;;;;;;;;5012812;28;20159;-72
2023/09/16 03:38:45;;;;;;;50.30;23.83;;;;;;;;;;5013162;28;20077;-72
2023/09/16 03:41:11;;;;;;;57.33;26.30;;;;;;;;;;5013194;28;20054;-72
2023/09/16 03:43:37;;;;;;;55.67;25.73;;;;;;;;;;5013334;28;20088;-71
2023/09/16 03:46:03;;;;;;;50.63;24.83;;;;;;;;;;5013566;28;20103;-71
2023/09/16 03:48:30;;;;;;;54.03;24.77;;;;;;;;;;5013210;28;20041;-71
2023/09/16 03:50:56;;;;;;;51.65;25.23;;;;;;;;;;5012424;28;20046;-72
2023/09/16 03:53:25;;;;;;;53.42;24.83;;;;;;;;;;5016147;28;20042;-71
2023/09/16 03:55:52;;;;;;;51.28;23.15;;;;;;;;;;5016695;28;20069;-71
2023/09/16 03:58:18;;;;;;;53.38;24.40;;;;;;;;;;5016738;28;20042;-70
2023/09/16 04:00:45;;;;;;;56.72;25.77;;;;;;;;;;5016209;28;20419;-71
2023/09/16 04:03:11;;;;;;;53.17;25.93;;;;;;;;;;5016840;28;20053;-71
2023/09/16 04:05:37;;;;;;;51.25;24.95;;;;;;;;;;5015980;28;20046;-71
2023/09/16 04:08:03;;;;;;;58.72;26.88;;;;;;;;;;5016353;28;20053;-72
2023/09/16 04:10:30;;;;;;;62.27;29.03;;;;;;;;;;5017399;28;20041;-72
2023/09/16 04:12:56;;;;;;;55.45;27.48;;;;;;;;;;5015190;28;20067;-71
2023/09/16 04:15:22;;;;;;;62.00;29.80;;;;;;;;;;5017040;28;20133;-71
2023/09/16 04:17:51;;;;;;;65.87;28.63;;;;;;;;;;5015574;28;20363;-70
2023/09/16 04:20:19;;;;;;;58.78;28.27;;;;;;;;;;5015462;28;20315;-71
2023/09/16 04:22:45;;;;;;;72.43;30.00;;;;;;;;;;5015169;28;20489;-71
2023/09/16 04:25:11;;;;;;;63.13;28.23;;;;;;;;;;5016302;28;20097;-71
2023/09/16 04:27:37;;;;;;;60.35;28.20;;;;;;;;;;5016300;28;20037;-71
2023/09/16 04:30:04;;;;;;;63.30;27.58;;;;;;;;;;5015904;28;20042;-71
2023/09/16 04:32:30;;;;;;;59.28;27.33;;;;;;;;;;5015203;28;20100;-71
2023/09/16 04:34:59;;;;;;;55.25;27.55;;;;;;;;;;5015309;28;20171;-72
2023/09/16 04:37:26;;;;;;;57.00;26.58;;;;;;;;;;5016058;28;20045;-71
2023/09/16 04:39:52;;;;;;;56.10;27.13;;;;;;;;;;5016149;28;20049;-71
2023/09/16 04:42:18;;;;;;;53.72;25.90;;;;;;;;;;5014800;28;20046;-72
2023/09/16 04:44:44;;;;;;;55.30;26.25;;;;;;;;;;5014735;28;20041;-71
2023/09/16 04:47:10;;;;;;;56.83;26.17;;;;;;;;;;5016481;28;20046;-72
2023/09/16 04:49:36;;;;;;;60.22;27.98;;;;;;;;;;5014711;28;20413;-72
2023/09/16 04:52:04;;;;;;;51.95;26.77;;;;;;;;;;5015791;28;20042;-70
2023/09/16 04:54:32;;;;;;;59.47;29.05;;;;;;;;;;5014679;28;20153;-72
2023/09/16 04:57:00;;;;;;;65.22;31.17;;;;;;;;;;5016306;28;20042;-71
2023/09/16 04:59:32;;;;;;;73.00;30.77;;;;;;;;;;5015647;28;20077;-71
2023/09/16 05:01:58;;;;;;;80.53;32.53;;;;;;;;;;5016154;28;20049;-71
2023/09/16 05:04:24;;;;;;;70.35;32.42;;;;;;;;;;5014700;28;20081;-71
2023/09/16 05:06:50;;;;;;;71.07;32.53;;;;;;;;;;5014216;28;20086;-72
2023/09/16 05:09:16;;;;;;;72.13;31.88;;;;;;;;;;5015617;28;20104;-71
2023/09/16 05:11:43;;;;;;;72.03;32.80;;;;;;;;;;5015393;28;20041;-71
2023/09/16 05:14:10;;;;;;;72.47;31.48;;;;;;;;;;5015748;28;20117;-71
2023/09/16 05:16:36;;;;;;;77.63;32.63;;;;;;;;;;5015014;28;20057;-71
2023/09/16 05:19:02;;;;;;;72.77;32.43;;;;;;;;;;5016049;28;20060;-70
2023/09/16 05:21:28;;;;;;;71.53;31.42;;;;;;;;;;5015343;28;20338;-71
2023/09/16 05:23:54;;;;;;;75.13;33.28;;;;;;;;;;5015165;28;20042;-71
2023/09/16 05:26:20;;;;;;;71.45;32.67;;;;;;;;;;5015959;28;20472;-71
2023/09/16 05:28:46;;;;;;;76.40;33.30;;;;;;;;;;5015064;28;20124;-72
2023/09/16 05:31:12;;;;;;;78.10;34.05;;;;;;;;;;5014387;28;20386;-70
2023/09/16 05:33:39;;;;;;;73.82;33.05;;;;;;;;;;5015800;28;20533;-72
2023/09/16 05:36:05;;;;;;;71.28;32.55;;;;;;;;;;5013787;28;20486;-71
2023/09/16 05:38:31;;;;;;;69.90;31.83;;;;;;;;;;5013597;28;20462;-71
2023/09/16 05:40:59;;;;;;;74.00;31.40;;;;;;;;;;4997853;28;20041;-71
2023/09/16 05:43:27;;;;;;;71.53;31.60;;;;;;;;;;5014859;28;20046;-78
2023/09/16 05:45:54;;;;;;;71.88;32.20;;;;;;;;;;5014618;28;20049;-72
2023/09/16 05:48:20;;;;;;;72.85;32.40;;;;;;;;;;5014764;28;20092;-71
2023/09/16 05:50:54;;;;;;;70.43;32.03;;;;;;;;;;5013695;28;20097;-72
2023/09/16 05:53:23;;;;;;;;;;;;;;;;;;5013909;28;20084;-72
2023/09/16 05:55:55;;;;;;;70.22;31.48;;;;;;;;;;5015406;28;19972;-71
2023/09/16 05:58:21;;;;;;;76.63;33.28;;;;;;;;;;5014568;28;20120;-71
2023/09/16 06:00:54;;;;;;;76.15;34.85;;;;;;;;;;5014487;28;20042;-72
2023/09/16 06:03:21;;;;;;;74.55;33.90;;;;;;;;;;5013343;28;20042;-72
2023/09/16 06:05:47;;;;;;;77.80;36.17;;;;;;;;;;5013386;28;20427;-71
2023/09/16 06:08:13;;;;;;;79.93;36.38;;;;;;;;;;5014436;28;20050;-71
2023/09/16 06:10:39;;;;;;;81.13;35.13;;;;;;;;;;5013047;28;20053;-72
2023/09/16 06:13:06;;;;;;;81.32;35.97;;;;;;;;;;5014305;28;20049;-71
2023/09/16 06:15:32;;;;;;;81.90;35.73;;;;;;;;;;5014225;28;20049;-71
2023/09/16 06:17:58;;;;;;;80.30;34.20;;;;;;;;;;5014397;28;20137;-71
2023/09/16 06:20:24;;;;;;;79.17;34.40;;;;;;;;;;5012759;28;20095;-71
2023/09/16 06:22:50;;;;;;;74.45;33.85;;;;;;;;;;5014370;28;20668;-72
2023/09/16 06:25:16;;;;;;;77.07;34.30;;;;;;;;;;5013475;28;20045;-70
2023/09/16 06:27:42;;;;;;;70.93;33.38;;;;;;;;;;5013788;28;20463;-71
2023/09/16 06:30:09;;;;;;;83.60;35.03;;;;;;;;;;5012956;28;20045;-71
2023/09/16 06:32:35;;;;;;;74.07;34.03;;;;;;;;;;5014031;28;20050;-71
2023/09/16 06:35:01;;;;;;;80.90;35.78;;;;;;;;;;4996486;28;20045;-72
2023/09/16 06:37:27;;;;;;;80.95;34.80;;;;;;;;;;5013042;28;20121;-71
2023/09/16 06:39:53;;;;;;;75.70;33.77;;;;;;;;;;4996395;28;20104;-71
2023/09/16 06:42:19;;;;;;;74.95;34.85;;;;;;;;;;5012902;28;20540;-70
2023/09/16 06:44:49;;;;;;;76.88;33.83;;;;;;;;;;5014429;28;20080;-71
2023/09/16 06:47:16;;;;;;;77.50;34.92;;;;;;;;;;5013749;28;20041;-73
2023/09/16 06:49:43;;;;;;;78.67;34.80;;;;;;;;;;5012568;28;20137;-70
2023/09/16 06:52:09;;;;;;;;;;;;;;;;;;5013798;28;20050;-71
2023/09/16 06:54:35;;;;;;;74.97;32.50;;;;;;;;;;5013010;28;20360;-77
2023/09/16 06:57:02;;;;;;;79.37;34.53;;;;;;;;;;5012938;28;20122;-71
2023/09/16 06:59:30;;;;;;;79.35;34.13;;;;;;;;;;5013650;28;20547;-71
2023/09/16 07:01:57;;;;;;;84.03;36.38;;;;;;;;;;5013272;28;20085;-71
2023/09/16 07:04:26;;;;;;;84.63;36.65;;;;;;;;;;5013517;28;20042;-71
2023/09/16 07:06:52;;;;;;;84.47;37.42;;;;;;;;;;5013391;28;20107;-71
2023/09/16 07:09:18;;;;;;;81.47;36.33;;;;;;;;;;5013644;28;20038;-71
2023/09/16 07:11:44;;;;;;;79.32;35.88;;;;;;;;;;5013506;28;20381;-71
2023/09/16 07:14:10;;;;;;;80.75;36.92;;;;;;;;;;5013483;28;20046;-72
2023/09/16 07:16:41;;;;;;;86.32;38.00;;;;;;;;;;5012364;28;20378;-71
2023/09/16 07:19:09;;;;;;;84.57;37.70;;;;;;;;;;5013555;28;20037;-72
2023/09/16 07:21:35;;;;;;;85.20;38.83;;;;;;;;;;5012773;28;20046;-72
2023/09/16 07:24:02;;;;;;;88.88;38.75;;;;;;;;;;5012189;28;20114;-71
2023/09/16 07:26:31;;;;;;;86.82;39.47;;;;;;;;;;5014590;28;20049;-71
2023/09/16 07:28:57;;;;;;;94.53;40.10;;;;;;;;;;5016066;28;20053;-72
2023/09/16 07:31:23;;;;;;;91.70;41.00;;;;;;;;;;5016614;28;20081;-71
2023/09/16 07:33:50;;;;;;;97.00;41.47;;;;;;;;;;5000140;28;20068;-71
2023/09/16 07:36:16;;;;;;;99.85;44.63;;;;;;;;;;5015959;28;20553;-71
2023/09/16 07:38:42;;;;;;;95.37;44.33;;;;;;;;;;5000617;28;20454;-71
2023/09/16 07:41:08;;;;;;;100.75;44.92;;;;;;;;;;5018408;28;20037;-73
2023/09/16 07:43:34;;;;;;;102.85;46.67;;;;;;;;;;5020087;28;20038;-72
2023/09/16 07:46:00;;;;;;;101.83;47.80;;;;;;;;;;5020848;28;20049;-72
2023/09/16 07:48:26;;;;;;;110.55;47.95;;;;;;;;;;5001354;28;20085;-72
2023/09/16 07:50:54;;;;;;;159.32;59.90;;;;;;;;;;5016449;28;20045;-72
2023/09/16 07:53:20;;;;;;;145.35;57.85;;;;;;;;;;5015900;28;20363;-72
2023/09/16 07:55:46;;;;;;;97.90;45.63;;;;;;;;;;5015814;28;20045;-71
2023/09/16 07:58:12;;;;;;;105.43;47.20;;;;;;;;;;5015982;28;20053;-71
2023/09/16 08:00:38;;;;;;;97.18;44.92;;;;;;;;;;5015377;28;20911;-72
2023/09/16 08:03:05;;;;;;;96.00;41.90;;;;;;;;;;5016438;28;20042;-71
2023/09/16 08:05:31;;;;;;;93.23;41.33;;;;;;;;;;5015742;28;20425;-72
2023/09/16 08:07:57;;;;;;;91.75;42.38;;;;;;;;;;5015659;28;20093;-72
2023/09/16 08:10:23;;;;;;;87.03;40.50;;;;;;;;;;5016291;28;20129;-73
2023/09/16 08:12:49;;;;;;;92.57;40.47;;;;;;;;;;5016448;28;20057;-72
2023/09/16 08:15:15;;;;;;;85.70;38.83;;;;;;;;;;5015272;28;20609;-71
2023/09/16 08:17:41;;;;;;;88.05;39.17;;;;;;;;;;5015413;28;20085;-71
2023/09/16 08:20:08;;;;;;;80.87;39.17;;;;;;;;;;5016358;28;20132;-71
2023/09/16 08:22:34;;;;;;;83.72;39.28;;;;;;;;;;5016287;28;20038;-72
2023/09/16 08:25:00;;;;;;;91.00;38.40;;;;;;;;;;5016082;28;20136;-73
2023/09/16 08:27:27;;;;;;;84.95;37.67;;;;;;;;;;4983553;28;20050;-72
2023/09/16 08:29:54;;;;;;;79.85;36.08;;;;;;;;;;5014877;28;20049;-73
2023/09/16 08:32:22;;;;;;;80.68;36.75;;;;;;;;;;4999184;28;20046;-72
2023/09/16 08:34:50;;;;;;;80.75;37.55;;;;;;;;;;5016077;28;20081;-71
2023/09/16 08:37:16;;;;;;;84.18;37.65;;;;;;;;;;5014269;28;20100;-71
2023/09/16 08:39:42;;;;;;;78.78;35.25;;;;;;;;;;4998522;28;20129;-73
2023/09/16 08:42:27;;;;;;;78.68;33.58;;;;;;;;;;5014969;28;20041;-72
2023/09/16 08:44:54;;;;;;;79.03;34.28;;;;;;;;;;5014673;28;20378;-72
2023/09/16 08:47:25;;;;;;;77.80;33.45;;;;;;;;;;5015526;28;20485;-72
2023/09/16 08:49:53;;;;;;;67.55;30.17;;;;;;;;;;5015829;28;20124;-79
2023/09/16 08:52:20;;;;;;;76.78;32.78;;;;;;;;;;5015153;28;20088;-73
2023/09/16 08:54:48;;;;;;;72.22;31.80;;;;;;;;;;5015983;28;20041;-72
2023/09/16 08:57:15;;;;;;;52.08;24.65;;;;;;;;;;5016231;28;20096;-74
2023/09/16 08:59:41;;;;;;;57.00;24.67;;;;;;;;;;5015635;28;20077;-73
2023/09/16 09:02:11;;;;;;;48.83;23.60;;;;;;;;;;5015535;28;20092;-73
2023/09/16 09:04:39;;;;;;;55.20;23.70;;;;;;;;;;5015530;28;20114;-72
2023/09/16 09:07:06;;;;;;;55.50;23.77;;;;;;;;;;5016058;28;20061;-72
2023/09/16 09:09:32;;;;;;;59.97;26.48;;;;;;;;;;5015999;28;20057;-72
2023/09/16 09:11:58;;;;;;;54.50;24.77;;;;;;;;;;4981409;28;20045;-72
2023/09/16 09:14:25;;;;;;;61.55;29.00;;;;;;;;;;5015387;28;20519;-72
2023/09/16 09:16:52;;;;;;;69.50;28.50;;;;;;;;;;5014627;28;20136;-72
2023/09/16 09:19:20;;;;;;;58.72;27.50;;;;;;;;;;4997681;28;20045;-72
2023/09/16 09:21:47;;;;;;;59.17;26.75;;;;;;;;;;5015991;28;20041;-72
2023/09/16 09:24:13;;;;;;;56.08;24.95;;;;;;;;;;5014772;28;20366;-73
2023/09/16 09:26:39;;;;;;;50.05;23.85;;;;;;;;;;4998353;28;20382;-73
2023/09/16 09:29:09;;;;;;;48.95;21.73;;;;;;;;;;5014088;28;20053;-72
2023/09/16 09:31:36;;;;;;;63.95;26.85;;;;;;;;;;5014220;28;20489;-73
2023/09/16 09:34:02;;;;;;;;;;;;;;;;;;5014209;28;20144;-73
2023/09/16 09:36:33;;;;;;;59.95;27.33;;;;;;;;;;5014907;28;20086;-73
2023/09/16 09:38:59;;;;;;;63.75;26.05;;;;;;;;;;5015319;28;20402;-73
2023/09/16 09:41:25;;;;;;;55.42;25.08;;;20.20;99.90;;;;;;5013864;28;20041;-73
2023/09/16 09:43:53;;;;;;;58.33;26.40;;;;;;;;;;5014336;28;20117;-72
2023/09/16 09:46:21;;;;;;;59.75;27.42;;;;;;;;;;4997299;28;20111;-73
2023/09/16 09:48:47;;;;;;;67.93;29.73;;;;;;;;;;5013038;28;20095;-71
2023/09/16 09:51:17;;;;;;;56.30;26.17;;;;;;;;;;5013622;28;20041;-71
2023/09/16 09:53:44;;;;;;;50.08;24.38;;;;;;;;;;5014588;28;20124;-73
2023/09/16 09:56:11;;;;;;;53.70;23.50;;;;;;;;;;5013498;28;20045;-72
2023/09/16 09:58:37;;;;;;;51.55;21.98;;;;;;;;;;5013462;28;20133;-72
2023/09/16 10:01:03;;;;;;;43.60;20.02;;;;;;;;;;5013271;28;20382;-72
2023/09/16 10:03:29;;;;;;;51.25;21.23;;;;;;;;;;5014339;28;20046;-72
2023/09/16 10:05:59;;;;;;;43.33;21.70;;;;;;;;;;5013128;28;20092;-73
2023/09/16 10:08:27;;;;;;;46.65;21.48;;;;;;;;;;5014928;28;20104;-72
2023/09/16 10:10:54;;;;;;;47.78;21.15;;;;;;;;;;5014848;28;20057;-72
2023/09/16 10:13:20;;;;;;;;;;;;;;;;;;5021995;28;20073;-72
2023/09/16 10:15:46;;;;;;;39.42;18.38;;;;;;;;;;5018233;28;19917;-73
2023/09/16 10:18:14;;;;;;;42.58;19.48;;;;;;;;;;4997313;28;20092;-73
2023/09/16 10:20:43;;;;;;;46.20;20.60;;;;;;;;;;5013185;28;20050;-73
2023/09/16 10:23:09;;;;;;;44.45;19.67;;;;;;;;;;5014510;28;20045;-72
2023/09/16 10:25:36;;;;;;;50.63;21.73;;;;;;;;;;5012950;28;20038;-72
2023/09/16 10:28:06;;;;;;;45.17;20.85;;;;;;;;;;4997031;28;20050;-73
2023/09/16 10:30:37;;;;;;;50.67;20.73;;;;;;;;;;5013931;28;20438;-72
2023/09/16 10:33:07;;;;;;;49.20;21.67;;;;;;;;;;5012826;28;20064;-72
2023/09/16 10:35:37;;;;;;;43.38;20.70;;;;;;;;;;5013996;28;20045;-72
2023/09/16 10:38:04;;;;;;;44.15;20.48;;;;;;;;;;4996391;28;20048;-72
2023/09/16 10:40:34;;;;;;;42.45;21.13;;;;;;;;;;5012784;28;20115;-73
2023/09/16 10:43:03;;;;;;;47.55;21.70;;;;;;;;;;5013852;28;20457;-72
2023/09/16 10:45:35;;;;;;;43.83;19.05;;;;;;;;;;5013217;28;20164;-73
2023/09/16 10:48:07;;;;;;;40.83;17.45;;;;;;;;;;5012818;28;20081;-73
2023/09/16 10:54:04;;;;;;;42.67;17.35;;;;;;;;;;5013607;28;20041;-72
2023/09/16 10:56:36;;;;;;;47.45;19.88;;;;;;;;;;5013532;28;20446;-72
2023/09/16 10:59:17;;;;;;;44.60;19.58;;;;;;;;;;4997411;28;20050;-72
2023/09/16 11:01:46;;;;;;;42.13;17.27;;;;;;;;;;5013799;28;20052;-72
2023/09/16 11:04:19;;;;;;;40.70;18.20;;;;;;;;;;5014282;28;20045;-72
2023/09/16 11:06:50;;;;;;;34.13;15.02;;;;;;;;;;4996576;28;20131;-72
2023/09/16 11:09:17;;;;;;;39.13;16.20;;;;;;;;;;5013806;28;20053;-72
2023/09/16 11:11:44;;;;;;;30.08;13.35;;;;;;;;;;5014303;28;20359;-72
2023/09/16 11:14:10;;;;;;;;;;;;;;;;;;4996735;28;20056;-72
2023/09/16 11:16:49;;;;;;;35.45;14.70;;;;;;;;;;5014204;28;19918;-73
2023/09/16 11:19:24;;;;;;;29.40;12.60;;;;;;;;;;5012505;28;20091;-72
2023/09/16 11:21:50;;;;;;;30.85;14.25;;;;;;;;;;5013378;28;20046;-72
2023/09/16 11:24:16;;;;;;;24.63;10.73;;;;;;;;;;5013006;28;20477;-73
2023/09/16 11:26:46;;;;;;;28.10;12.27;;;;;;;;;;4996713;28;20050;-72
2023/09/16 11:29:17;;;;;;;17.75;8.00;;;;;;;;;;5012139;28;20391;-70
2023/09/16 11:31:44;;;;;;;24.67;9.77;;;;;;;;;;5014096;28;20058;-71
2023/09/16 11:34:11;;;;;;;18.45;8.13;;;;;;;;;;5013442;28;20435;-72
2023/09/16 11:36:41;;;;;;;20.73;7.95;;;;;;;;;;5012304;28;20129;-71
2023/09/16 11:39:08;;;;;;;16.42;7.85;;;;;;;;;;5013207;28;20478;-71
2023/09/16 11:41:34;;;;;;;15.38;7.13;;;;;;;;;;5013127;28;20053;-71
2023/09/16 11:44:05;;;;;;;16.15;6.28;;;;;;;;;;5012618;28;20369;-72
2023/09/16 11:46:32;;;;;;;18.67;7.03;;;;;;;;;;5012978;28;20046;-73
2023/09/16 11:49:04;;;;;;;14.45;7.05;;;;;;;;;;5013188;28;20042;-72
2023/09/16 11:51:31;;;;;;;17.17;7.05;;;;;;;;;;5012072;28;20053;-73
2023/09/16 11:54:00;;;;;;;17.15;8.65;;;;;;;;;;5012005;28;20049;-72
2023/09/16 11:56:29;;;;;;;17.90;8.07;;;;;;;;;;5013049;28;20038;-71
2023/09/16 11:58:56;;;;;;;17.63;9.13;;;;;;;;;;5013193;28;20355;-73
2023/09/16 12:01:29;;;;;;;22.92;11.50;;;;;;;;;;5013340;28;20401;-73
2023/09/16 12:03:58;;;;;;;169.38;88.45;;;;;;;;;;5012337;28;20042;-72
2023/09/16 12:06:26;;;;;;;;;;;;;;;;;;5013407;28;20434;-70
2023/09/16 12:08:56;;;;;;;42.70;19.23;;;;;;;;;;5012608;28;20443;-73
2023/09/16 12:11:25;;;;;;;;;;;;;;;;;;5012395;28;20045;-72
2023/09/16 12:13:53;;;;;;;22.92;17.13;;;;;;;;;;5016025;28;20199;-73
2023/09/16 12:16:19;;;;;;;17.50;8.20;;;;;;;;;;4999151;28;20050;-73
2023/09/16 12:18:45;;;;;;;17.30;7.10;;;;;;;;;;5016361;28;20089;-73
2023/09/16 12:21:12;;;;;;;15.88;7.90;;;;;;;;;;5016294;28;20085;-72
2023/09/16 12:23:40;;;;;;;15.82;8.27;;;;;;;;;;5016711;28;20084;-73
2023/09/16 12:26:08;;;;;;;17.92;7.47;;;;;;;;;;5016795;28;20049;-73
2023/09/16 12:28:34;;;;;;;19.85;7.72;;;;;;;;;;5017078;28;20374;-73
2023/09/16 12:31:00;;;;;;;19.13;7.63;;;;;;;;;;5016170;28;20088;-72
2023/09/16 12:33:47;;;;;;;19.20;8.30;;;;;;;;;;5015752;28;20470;-73
2023/09/16 12:36:17;;;;;;;16.35;7.85;;;;;;;;;;5015421;28;20045;-72
2023/09/16 12:38:43;;;;;;;14.38;6.70;;;;;;;;;;5018713;28;20038;-72
2023/09/16 12:41:12;;;;;;;19.20;8.23;;;;;;;;;;5017976;28;20042;-71
2023/09/16 12:43:38;;;;;;;16.80;7.82;;;;;;;;;;5016347;28;20437;-72
2023/09/16 12:46:08;;;;;;;15.10;7.13;;;;;;;;;;4998392;28;20129;-72
2023/09/16 12:48:35;;;;;;;17.63;7.40;;;;;;;;;;5016190;28;20049;-72
2023/09/16 12:51:01;;;;;;;15.30;7.18;;;;;;;;;;4999221;28;20046;-73
2023/09/16 12:53:28;;;;;;;13.68;7.45;;;;;;;;;;4998289;28;20041;-73
2023/09/16 12:55:54;;;;;;;15.15;6.95;;;;;;;;;;5015758;28;20127;-72
2023/09/16 12:58:24;;;;;;;14.18;6.80;;;;;;;;;;5015654;28;20052;-72
2023/09/16 13:00:50;;;;;;;12.68;6.40;;;;;;;;;;4998160;28;20470;-72
2023/09/16 13:03:16;;;;;;;;;;;;;;;;;;4998470;28;20038;-72
2023/09/16 13:05:52;;;;;;;13.52;6.10;;;;;;;;;;5015403;28;19924;-73
2023/09/16 13:08:19;;;;;;;17.45;6.85;;;;;;;;;;5015518;28;20494;-72
2023/09/16 13:10:49;;;;;;;17.02;6.95;;;;;;;;;;5015628;28;20137;-71
2023/09/16 13:13:16;;;;;;;12.65;6.10;;;;;;;;;;5014046;28;20103;-72
2023/09/16 13:15:43;;;;;;;13.50;6.05;;;;;;;;;;5013950;28;20041;-71
2023/09/16 13:18:09;;;;;;;14.85;5.97;;;;;;;;;;5014697;28;20418;-73
2023/09/16 13:20:39;;;;;;;11.98;5.45;;;;;;;;;;5015218;28;20077;-71
2023/09/16 13:23:06;;;;;;;10.45;5.22;;;;;;;;;;5014315;28;20041;-73
2023/09/16 13:25:34;;;;;;;10.65;5.85;;;;;;;;;;4980228;28;20045;-72
2023/09/16 13:28:06;;;;;;;16.38;6.25;;;;;;;;;;5015110;28;20402;-71
2023/09/16 13:30:35;;;;;;;11.48;6.00;;;;;;;;;;5014906;28;20129;-72
2023/09/16 13:33:02;;;;;;;12.73;5.68;;;;;;;;;;4997585;28;20053;-72
2023/09/16 13:35:28;;;;;;;13.30;5.60;;;;;;;;;;5013933;28;20046;-72
2023/09/16 13:37:54;;;;;;;12.30;5.85;;;;;;;;;;5013345;28;20041;-73
2023/09/16 13:40:22;;;;;;;13.57;5.18;;;;;;;;;;5013787;28;20377;-73
2023/09/16 13:42:48;;;;;;;9.15;5.32;;;;;;;;;;5013370;28;20049;-71
2023/09/16 13:45:14;;;;;;;12.85;5.50;;;;;;;;;;5014162;28;20353;-72
2023/09/16 13:47:40;;;;;;;12.27;5.68;;;;;;;;;;5014770;28;20038;-73
2023/09/16 13:50:07;;;;;;;12.70;5.75;;;;;;;;;;4997129;28;20378;-73
2023/09/16 13:52:33;;;;;;;11.50;5.30;;;;;;;;;;5013525;28;20053;-78
2023/09/16 13:54:59;;;;;;;15.50;5.45;;;;;;;;;;5014535;28;20042;-72
2023/09/16 13:57:25;;;;;;;10.02;5.50;;;;;;;;;;5013129;28;20056;-71
2023/09/16 13:59:52;;;;;;;11.00;5.75;;;;;;;;;;4996813;28;20053;-72
2023/09/16 14:02:18;;;;;;;9.90;5.30;;;;;;;;;;5014391;28;20351;-72
2023/09/16 14:04:44;;;;;;;10.25;5.60;;;;;;;;;;5013715;28;20038;-72
2023/09/16 14:07:10;;;;;;;10.45;5.10;;;;;;;;;;4996868;28;20050;-71
2023/09/16 14:09:36;;;;;;;12.55;5.35;;;;;;;;;;4996972;28;20050;-71
2023/09/16 14:12:02;;;;;;;13.90;5.68;;;;;;;;;;4996954;28;20046;-71
2023/09/16 14:14:28;;;;;;;14.05;6.18;;;;;;;;;;5014262;28;20107;-71